sensor_id;sensor_type;location;lat;lon;timestamp;P1;durP1;ratioP1;P2;durP2;ratioP2
20857;SDS011;10589;53.636;10.012;2024-03-06T04:45:29;10.13;;;7.20;;
20857;SDS011;10589;53.636;10.012;2024-03-06T04:47:55;10.70;;;7.30;;
20857;SDS011;10589;53.636;10.012;2024-03-06T04:50:21;9.27;;;6.77;;
20857;SDS011;10589;53.636;10.012;2024-03-06T04:52:46;8.30;;;6.50;;
20857;SDS011;10589;53.636;10.012;2024-03-06T04:55:12;9.73;;;6.37;;
20857;SDS011;10589;53.636;10.012;2024-03-06T04:57:42;10.10;;;6.60;;
20857;SDS011;10589;53.636;10.012;2024-03-06T05:00:09;10.27;;;6.70;;
20857;SDS011;10589;53.636;10.012;2024-03-06T05:02:35;9.73;;;7.20;;
20857;SDS011;10589;53.636;10.012;2024-03-06T05:05:02;11.90;;;7.27;;
20857;SDS011;10589;53.636;10.012;2024-03-06T05:07:29;9.57;;;7.20;;
20857;SDS011;10589;53.636;10.012;2024-03-06T05:09:55;13.00;;;7.33;;
20857;SDS011;10589;53.636;10.012;2024-03-06T05:12:24;13.50;;;7.60;;
20857;SDS011;10589;53.636;10.012;2024-03-06T05:14:51;11.80;;;7.43;;
20857;SDS011;10589;53.636;10.012;2024-03-06T05:17:17;11.00;;;7.63;;
20857;SDS011;10589;53.636;10.012;2024-03-06T05:19:43;13.13;;;7.10;;
20857;SDS011;10589;53.636;10.012;2024-03-06T05:22:14;12.20;;;7.47;;
20857;SDS011;10589;53.636;10.012;2024-03-06T05:24:40;10.83;;;7.27;;
20857;SDS011;10589;53.636;10.012;2024-03-06T05:27:06;10.57;;;7.97;;
20857;SDS011;10589;53.636;10.012;2024-03-06T05:29:32;11.47;;;8.20;;
20857;SDS011;10589;53.636;10.012;2024-03-06T05:31:58;12.23;;;7.77;;
20857;SDS011;10589;53.636;10.012;2024-03-06T05:34:23;14.03;;;8.13;;
20857;SDS011;10589;53.636;10.012;2024-03-06T05:36:49;12.07;;;7.87;;
20857;SDS011;10589;53.636;10.012;2024-03-06T05:39:15;10.17;;;8.13;;
20857;SDS011;10589;53.636;10.012;2024-03-06T05:41:42;10.57;;;7.60;;
20857;SDS011;10589;53.636;10.012;2024-03-06T05:44:08;13.33;;;8.10;;
20857;SDS011;10589;53.636;10.012;2024-03-06T05:46:34;10.80;;;7.77;;
20857;SDS011;10589;53.636;10.012;2024-03-06T05:49:01;11.37;;;7.70;;
20857;SDS011;10589;53.636;10.012;2024-03-06T05:51:27;10.33;;;7.90;;
20857;SDS011;10589;53.636;10.012;2024-03-06T05:53:53;13.60;;;8.03;;
20857;SDS011;10589;53.636;10.012;2024-03-06T05:56:18;12.13;;;8.50;;
20857;SDS011;10589;53.636;10.012;2024-03-06T05:58:44;13.47;;;8.33;;
20857;SDS011;10589;53.636;10.012;2024-03-06T06:01:14;12.37;;;8.50;;
20857;SDS011;10589;53.636;10.012;2024-03-06T06:03:43;12.73;;;8.17;;
20857;SDS011;10589;53.636;10.012;2024-03-06T06:06:09;14.60;;;8.83;;
20857;SDS011;10589;53.636;10.012;2024-03-06T06:08:35;15.53;;;8.60;;
20857;SDS011;10589;53.636;10.012;2024-03-06T06:11:01;13.57;;;9.17;;
20857;SDS011;10589;53.636;10.012;2024-03-06T06:13:28;13.20;;;8.33;;
20857;SDS011;10589;53.636;10.012;2024-03-06T06:15:54;16.70;;;8.53;;
20857;SDS011;10589;53.636;10.012;2024-03-06T06:18:19;11.70;;;7.93;;
20857;SDS011;10589;53.636;10.012;2024-03-06T06:20:45;12.40;;;8.47;;
20857;SDS011;10589;53.636;10.012;2024-03-06T06:23:11;11.97;;;8.33;;
20857;SDS011;10589;53.636;10.012;2024-03-06T06:25:37;15.03;;;8.33;;
20857;SDS011;10589;53.636;10.012;2024-03-06T06:28:02;15.57;;;8.93;;
20857;SDS011;10589;53.636;10.012;2024-03-06T06:30:29;13.80;;;8.27;;
20857;SDS011;10589;53.636;10.012;2024-03-06T06:32:55;12.23;;;9.27;;
20857;SDS011;10589;53.636;10.012;2024-03-06T06:35:20;12.73;;;9.07;;
20857;SDS011;10589;53.636;10.012;2024-03-06T06:37:47;12.87;;;8.83;;
20857;SDS011;10589;53.636;10.012;2024-03-06T06:40:13;14.70;;;9.40;;
20857;SDS011;10589;53.636;10.012;2024-03-06T06:42:43;14.27;;;9.80;;
20857;SDS011;10589;53.636;10.012;2024-03-06T06:45:14;15.30;;;9.73;;
20857;SDS011;10589;53.636;10.012;2024-03-06T06:47:43;14.50;;;9.63;;
20857;SDS011;10589;53.636;10.012;2024-03-06T06:50:09;14.87;;;9.90;;
20857;SDS011;10589;53.636;10.012;2024-03-06T06:52:36;14.23;;;10.20;;
20857;SDS011;10589;53.636;10.012;2024-03-06T06:55:05;12.93;;;9.37;;
20857;SDS011;10589;53.636;10.012;2024-03-06T06:57:32;13.23;;;9.70;;
20857;SDS011;10589;53.636;10.012;2024-03-06T06:59:58;13.67;;;9.57;;
20857;SDS011;10589;53.636;10.012;2024-03-06T07:02:24;11.43;;;9.00;;
20857;SDS011;10589;53.636;10.012;2024-03-06T07:04:50;11.93;;;9.20;;
20857;SDS011;10589;53.636;10.012;2024-03-06T07:07:16;11.23;;;9.20;;
20857;SDS011;10589;53.636;10.012;2024-03-06T07:09:42;15.00;;;9.40;;
20857;SDS011;10589;53.636;10.012;2024-03-06T07:12:09;16.93;;;10.70;;
20857;SDS011;10589;53.636;10.012;2024-03-06T07:14:34;15.40;;;10.33;;
20857;SDS011;10589;53.636;10.012;2024-03-06T07:17:00;12.67;;;9.17;;
20857;SDS011;10589;53.636;10.012;2024-03-06T07:19:26;15.43;;;9.97;;
20857;SDS011;10589;53.636;10.012;2024-03-06T07:21:51;18.00;;;9.20;;
20857;SDS011;10589;53.636;10.012;2024-03-06T07:24:18;14.23;;;10.47;;
20857;SDS011;10589;53.636;10.012;2024-03-06T07:26:44;13.90;;;9.97;;
20857;SDS011;10589;53.636;10.012;2024-03-06T07:29:10;15.00;;;10.07;;
20857;SDS011;10589;53.636;10.012;2024-03-06T07:31:42;13.53;;;9.83;;
20857;SDS011;10589;53.636;10.012;2024-03-06T07:34:12;12.83;;;9.03;;
20857;SDS011;10589;53.636;10.012;2024-03-06T07:36:39;12.53;;;9.67;;
20857;SDS011;10589;53.636;10.012;2024-03-06T07:39:05;13.40;;;8.97;;
20857;SDS011;10589;53.636;10.012;2024-03-06T07:41:32;13.97;;;9.03;;
20857;SDS011;10589;53.636;10.012;2024-03-06T07:43:58;10.50;;;7.97;;
20857;SDS011;10589;53.636;10.012;2024-03-06T07:46:24;11.60;;;9.07;;
20857;SDS011;10589;53.636;10.012;2024-03-06T07:48:50;11.03;;;8.83;;
20857;SDS011;10589;53.636;10.012;2024-03-06T07:51:16;15.50;;;8.87;;
20857;SDS011;10589;53.636;10.012;2024-03-06T07:53:42;12.07;;;8.57;;
20857;SDS011;10589;53.636;10.012;2024-03-06T07:56:10;13.37;;;8.67;;
20857;SDS011;10589;53.636;10.012;2024-03-06T07:58:36;10.57;;;7.70;;
20857;SDS011;10589;53.636;10.012;2024-03-06T08:01:02;11.07;;;7.67;;
20857;SDS011;10589;53.636;10.012;2024-03-06T08:03:28;8.83;;;7.17;;
20857;SDS011;10589;53.636;10.012;2024-03-06T08:05:54;9.93;;;6.63;;
20857;SDS011;10589;53.636;10.012;2024-03-06T08:08:19;10.17;;;6.43;;
20857;SDS011;10589;53.636;10.012;2024-03-06T08:10:45;10.53;;;6.50;;
20857;SDS011;10589;53.636;10.012;2024-03-06T08:13:11;9.60;;;6.17;;
20857;SDS011;10589;53.636;10.012;2024-03-06T08:15:37;8.87;;;6.33;;
20857;SDS011;10589;53.636;10.012;2024-03-06T08:18:02;7.93;;;6.50;;
20857;SDS011;10589;53.636;10.012;2024-03-06T08:20:28;9.17;;;5.93;;
20857;SDS011;10589;53.636;10.012;2024-03-06T08:22:54;9.07;;;6.53;;
20857;SDS011;10589;53.636;10.012;2024-03-06T08:25:21;8.80;;;5.30;;
20857;SDS011;10589;53.636;10.012;2024-03-06T08:27:48;7.40;;;5.63;;
20857;SDS011;10589;53.636;10.012;2024-03-06T08:30:13;8.47;;;5.77;;
20857;SDS011;10589;53.636;10.012;2024-03-06T08:32:39;7.37;;;5.43;;
20857;SDS011;10589;53.636;10.012;2024-03-06T08:35:05;8.43;;;5.50;;
20857;SDS011;10589;53.636;10.012;2024-03-06T08:37:40;9.03;;;5.70;;
20857;SDS011;10589;53.636;10.012;2024-03-06T08:40:06;7.90;;;6.10;;
20857;SDS011;10589;53.636;10.012;2024-03-06T08:42:35;6.67;;;4.97;;
20857;SDS011;10589;53.636;10.012;2024-03-06T08:45:01;9.33;;;6.03;;
20857;SDS011;10589;53.636;10.012;2024-03-06T08:47:27;6.70;;;5.33;;
20857;SDS011;10589;53.636;10.012;2024-03-06T08:49:53;10.43;;;5.17;;
20857;SDS011;10589;53.636;10.012;2024-03-06T08:52:19;10.63;;;5.93;;
20857;SDS011;10589;53.636;10.012;2024-03-06T08:54:45;6.97;;;5.50;;
20857;SDS011;10589;53.636;10.012;2024-03-06T08:57:11;9.27;;;6.03;;
20857;SDS011;10589;53.636;10.012;2024-03-06T08:59:37;8.07;;;5.17;;
20857;SDS011;10589;53.636;10.012;2024-03-06T09:04:39;7.17;;;5.33;;
20857;SDS011;10589;53.636;10.012;2024-03-06T09:07:06;9.03;;;5.07;;
20857;SDS011;10589;53.636;10.012;2024-03-06T09:09:31;6.87;;;5.40;;
20857;SDS011;10589;53.636;10.012;2024-03-06T09:11:59;7.83;;;5.60;;
20857;SDS011;10589;53.636;10.012;2024-03-06T09:14:25;6.73;;;5.07;;
20857;SDS011;10589;53.636;10.012;2024-03-06T09:16:51;10.20;;;5.23;;
20857;SDS011;10589;53.636;10.012;2024-03-06T09:19:16;7.13;;;5.57;;
20857;SDS011;10589;53.636;10.012;2024-03-06T09:21:42;9.07;;;5.47;;
20857;SDS011;10589;53.636;10.012;2024-03-06T09:24:07;6.73;;;5.27;;
20857;SDS011;10589;53.636;10.012;2024-03-06T09:26:33;9.60;;;5.00;;
20857;SDS011;10589;53.636;10.012;2024-03-06T09:28:59;6.90;;;5.23;;
20857;SDS011;10589;53.636;10.012;2024-03-06T09:31:26;6.60;;;5.03;;
20857;SDS011;10589;53.636;10.012;2024-03-06T09:33:52;6.83;;;5.13;;
20857;SDS011;10589;53.636;10.012;2024-03-06T09:36:18;8.20;;;5.50;;
20857;SDS011;10589;53.636;10.012;2024-03-06T09:38:44;7.47;;;5.27;;
20857;SDS011;10589;53.636;10.012;2024-03-06T09:41:09;10.97;;;5.63;;
20857;SDS011;10589;53.636;10.012;2024-03-06T09:43:35;9.20;;;5.80;;
20857;SDS011;10589;53.636;10.012;2024-03-06T09:46:01;7.23;;;5.33;;
20857;SDS011;10589;53.636;10.012;2024-03-06T09:48:29;7.63;;;5.83;;
20857;SDS011;10589;53.636;10.012;2024-03-06T09:50:57;7.93;;;5.87;;
20857;SDS011;10589;53.636;10.012;2024-03-06T09:53:25;6.63;;;5.57;;
20857;SDS011;10589;53.636;10.012;2024-03-06T09:55:51;7.23;;;5.20;;
20857;SDS011;10589;53.636;10.012;2024-03-06T09:58:17;9.40;;;6.13;;
20857;SDS011;10589;53.636;10.012;2024-03-06T10:00:44;7.83;;;5.47;;
20857;SDS011;10589;53.636;10.012;2024-03-06T10:03:12;8.13;;;6.60;;
20857;SDS011;10589;53.636;10.012;2024-03-06T10:05:38;8.77;;;5.93;;
20857;SDS011;10589;53.636;10.012;2024-03-06T10:08:04;8.07;;;6.03;;
20857;SDS011;10589;53.636;10.012;2024-03-06T10:10:30;7.87;;;6.00;;
20857;SDS011;10589;53.636;10.012;2024-03-06T10:12:56;8.00;;;6.10;;
20857;SDS011;10589;53.636;10.012;2024-03-06T10:15:25;8.20;;;6.10;;
20857;SDS011;10589;53.636;10.012;2024-03-06T10:18:09;10.40;;;6.23;;
20857;SDS011;10589;53.636;10.012;2024-03-06T10:20:40;10.83;;;5.77;;
20857;SDS011;10589;53.636;10.012;2024-03-06T10:23:08;10.47;;;5.50;;
20857;SDS011;10589;53.636;10.012;2024-03-06T10:25:36;10.70;;;6.10;;
20857;SDS011;10589;53.636;10.012;2024-03-06T10:28:05;10.83;;;6.00;;
20857;SDS011;10589;53.636;10.012;2024-03-06T10:30:39;10.37;;;6.33;;
20857;SDS011;10589;53.636;10.012;2024-03-06T10:33:09;8.40;;;5.97;;
20857;SDS011;10589;53.636;10.012;2024-03-06T10:35:35;7.83;;;5.73;;
20857;SDS011;10589;53.636;10.012;2024-03-06T10:38:05;9.07;;;6.00;;
20857;SDS011;10589;53.636;10.012;2024-03-06T10:40:32;7.83;;;5.83;;
20857;SDS011;10589;53.636;10.012;2024-03-06T10:42:59;8.73;;;6.57;;
20857;SDS011;10589;53.636;10.012;2024-03-06T10:45:46;8.70;;;6.47;;
20857;SDS011;10589;53.636;10.012;2024-03-06T10:48:17;7.90;;;6.40;;
20857;SDS011;10589;53.636;10.012;2024-03-06T10:50:43;8.97;;;6.20;;
20857;SDS011;10589;53.636;10.012;2024-03-06T10:53:11;9.63;;;6.40;;
20857;SDS011;10589;53.636;10.012;2024-03-06T10:55:37;8.40;;;6.73;;
20857;SDS011;10589;53.636;10.012;2024-03-06T10:58:07;7.93;;;6.20;;
20857;SDS011;10589;53.636;10.012;2024-03-06T11:00:42;9.17;;;6.30;;
20857;SDS011;10589;53.636;10.012;2024-03-06T11:03:14;9.03;;;6.60;;
20857;SDS011;10589;53.636;10.012;2024-03-06T11:05:41;7.40;;;6.03;;
20857;SDS011;10589;53.636;10.012;2024-03-06T11:08:08;8.50;;;6.60;;
20857;SDS011;10589;53.636;10.012;2024-03-06T11:10:35;9.03;;;6.60;;
20857;SDS011;10589;53.636;10.012;2024-03-06T11:13:23;11.23;;;6.13;;
20857;SDS011;10589;53.636;10.012;2024-03-06T11:15:51;9.87;;;7.20;;
20857;SDS011;10589;53.636;10.012;2024-03-06T11:20:58;9.10;;;6.80;;
20857;SDS011;10589;53.636;10.012;2024-03-06T11:23:24;9.27;;;6.60;;
20857;SDS011;10589;53.636;10.012;2024-03-06T11:28:19;10.13;;;6.80;;
20857;SDS011;10589;53.636;10.012;2024-03-06T11:33:39;9.27;;;6.53;;
20857;SDS011;10589;53.636;10.012;2024-03-06T11:36:14;11.00;;;6.77;;
20857;SDS011;10589;53.636;10.012;2024-03-06T11:38:42;9.47;;;6.83;;
20857;SDS011;10589;53.636;10.012;2024-03-06T11:41:07;8.70;;;6.40;;
20857;SDS011;10589;53.636;10.012;2024-03-06T11:43:41;9.77;;;6.30;;
20857;SDS011;10589;53.636;10.012;2024-03-06T11:46:11;8.40;;;6.47;;
20857;SDS011;10589;53.636;10.012;2024-03-06T11:48:37;10.87;;;6.90;;
20857;SDS011;10589;53.636;10.012;2024-03-06T11:51:03;10.40;;;6.87;;
20857;SDS011;10589;53.636;10.012;2024-03-06T11:53:30;9.27;;;6.70;;
20857;SDS011;10589;53.636;10.012;2024-03-06T11:55:55;10.77;;;6.07;;
20857;SDS011;10589;53.636;10.012;2024-03-06T11:58:22;8.00;;;6.33;;
20857;SDS011;10589;53.636;10.012;2024-03-06T12:00:47;8.70;;;6.60;;
20857;SDS011;10589;53.636;10.012;2024-03-06T12:03:13;10.27;;;6.53;;
20857;SDS011;10589;53.636;10.012;2024-03-06T12:05:39;8.97;;;6.83;;
20857;SDS011;10589;53.636;10.012;2024-03-06T12:08:06;10.13;;;6.50;;
20857;SDS011;10589;53.636;10.012;2024-03-06T12:10:38;10.33;;;6.60;;
20857;SDS011;10589;53.636;10.012;2024-03-06T12:13:04;9.23;;;6.17;;
20857;SDS011;10589;53.636;10.012;2024-03-06T12:15:30;11.17;;;5.87;;
20857;SDS011;10589;53.636;10.012;2024-03-06T12:17:56;10.27;;;6.17;;
20857;SDS011;10589;53.636;10.012;2024-03-06T12:20:22;7.10;;;5.80;;
20857;SDS011;10589;53.636;10.012;2024-03-06T12:22:51;7.23;;;5.73;;
20857;SDS011;10589;53.636;10.012;2024-03-06T12:25:22;10.20;;;6.07;;
20857;SDS011;10589;53.636;10.012;2024-03-06T12:27:49;8.00;;;6.13;;
20857;SDS011;10589;53.636;10.012;2024-03-06T12:30:16;9.50;;;5.87;;
20857;SDS011;10589;53.636;10.012;2024-03-06T12:32:43;8.80;;;6.07;;
20857;SDS011;10589;53.636;10.012;2024-03-06T12:35:09;9.67;;;6.30;;
20857;SDS011;10589;53.636;10.012;2024-03-06T12:37:34;9.63;;;6.00;;
20857;SDS011;10589;53.636;10.012;2024-03-06T12:40:00;8.20;;;6.17;;
20857;SDS011;10589;53.636;10.012;2024-03-06T12:42:29;10.70;;;5.50;;
20857;SDS011;10589;53.636;10.012;2024-03-06T12:44:55;9.30;;;6.33;;
20857;SDS011;10589;53.636;10.012;2024-03-06T12:47:20;9.67;;;6.30;;
20857;SDS011;10589;53.636;10.012;2024-03-06T12:49:46;8.63;;;6.73;;
20857;SDS011;10589;53.636;10.012;2024-03-06T12:52:11;7.80;;;6.00;;
20857;SDS011;10589;53.636;10.012;2024-03-06T12:54:37;7.53;;;5.57;;
20857;SDS011;10589;53.636;10.012;2024-03-06T12:57:03;9.50;;;5.50;;
20857;SDS011;10589;53.636;10.012;2024-03-06T12:59:29;10.20;;;6.00;;
20857;SDS011;10589;53.636;10.012;2024-03-06T13:01:54;6.53;;;5.50;;
20857;SDS011;10589;53.636;10.012;2024-03-06T13:04:20;9.00;;;5.43;;
20857;SDS011;10589;53.636;10.012;2024-03-06T13:06:46;9.50;;;5.70;;
20857;SDS011;10589;53.636;10.012;2024-03-06T13:09:11;10.33;;;5.87;;
20857;SDS011;10589;53.636;10.012;2024-03-06T13:11:37;8.83;;;6.53;;
20857;SDS011;10589;53.636;10.012;2024-03-06T13:14:03;7.57;;;5.57;;
20857;SDS011;10589;53.636;10.012;2024-03-06T13:16:28;9.37;;;5.70;;
20857;SDS011;10589;53.636;10.012;2024-03-06T13:18:54;7.53;;;5.60;;
20857;SDS011;10589;53.636;10.012;2024-03-06T13:21:21;12.67;;;5.70;;
20857;SDS011;10589;53.636;10.012;2024-03-06T13:23:48;5.83;;;5.10;;
20857;SDS011;10589;53.636;10.012;2024-03-06T13:26:14;7.13;;;5.33;;
20857;SDS011;10589;53.636;10.012;2024-03-06T13:28:40;9.10;;;5.50;;
20857;SDS011;10589;53.636;10.012;2024-03-06T13:31:06;6.18;;;5.00;;
20857;SDS011;10589;53.636;10.012;2024-03-06T13:33:32;5.93;;;5.32;;
20857;SDS011;10589;53.636;10.012;2024-03-06T13:35:58;5.05;;;4.55;;
20857;SDS011;10589;53.636;10.012;2024-03-06T13:38:23;6.97;;;4.93;;
20857;SDS011;10589;53.636;10.012;2024-03-06T13:40:49;6.90;;;5.45;;
20857;SDS011;10589;53.636;10.012;2024-03-06T13:43:14;8.55;;;4.97;;
20857;SDS011;10589;53.636;10.012;2024-03-06T13:45:50;7.03;;;5.38;;
20857;SDS011;10589;53.636;10.012;2024-03-06T13:48:15;8.25;;;5.65;;
20857;SDS011;10589;53.636;10.012;2024-03-06T13:50:45;7.68;;;5.50;;
20857;SDS011;10589;53.636;10.012;2024-03-06T13:53:11;6.93;;;5.30;;
20857;SDS011;10589;53.636;10.012;2024-03-06T13:55:37;8.27;;;5.60;;
20857;SDS011;10589;53.636;10.012;2024-03-06T13:58:03;7.77;;;5.40;;
20857;SDS011;10589;53.636;10.012;2024-03-06T14:00:29;9.73;;;5.73;;
20857;SDS011;10589;53.636;10.012;2024-03-06T14:02:55;8.37;;;5.60;;
20857;SDS011;10589;53.636;10.012;2024-03-06T14:05:20;8.53;;;5.10;;
20857;SDS011;10589;53.636;10.012;2024-03-06T14:07:53;11.60;;;5.97;;
20857;SDS011;10589;53.636;10.012;2024-03-06T14:10:20;7.40;;;5.57;;
20857;SDS011;10589;53.636;10.012;2024-03-06T14:12:47;7.23;;;5.50;;
20857;SDS011;10589;53.636;10.012;2024-03-06T14:15:16;6.73;;;5.10;;
20857;SDS011;10589;53.636;10.012;2024-03-06T14:17:44;7.27;;;5.13;;
20857;SDS011;10589;53.636;10.012;2024-03-06T14:20:10;7.07;;;5.10;;
20857;SDS011;10589;53.636;10.012;2024-03-06T14:22:40;5.20;;;4.70;;
20857;SDS011;10589;53.636;10.012;2024-03-06T14:25:07;7.00;;;5.40;;
20857;SDS011;10589;53.636;10.012;2024-03-06T14:27:33;10.83;;;5.80;;
20857;SDS011;10589;53.636;10.012;2024-03-06T14:30:00;7.80;;;5.10;;
20857;SDS011;10589;53.636;10.012;2024-03-06T14:32:27;7.00;;;4.87;;
20857;SDS011;10589;53.636;10.012;2024-03-06T14:34:52;6.57;;;4.40;;
20857;SDS011;10589;53.636;10.012;2024-03-06T14:37:18;5.53;;;4.13;;
20857;SDS011;10589;53.636;10.012;2024-03-06T14:39:44;6.17;;;5.07;;
20857;SDS011;10589;53.636;10.012;2024-03-06T14:42:09;6.03;;;4.97;;
20857;SDS011;10589;53.636;10.012;2024-03-06T14:44:35;7.15;;;4.97;;
20857;SDS011;10589;53.636;10.012;2024-03-06T14:47:00;6.63;;;4.40;;
20857;SDS011;10589;53.636;10.012;2024-03-06T14:49:26;7.90;;;4.28;;
20857;SDS011;10589;53.636;10.012;2024-03-06T14:51:52;5.18;;;4.57;;
20857;SDS011;10589;53.636;10.012;2024-03-06T14:54:18;8.25;;;4.45;;
20857;SDS011;10589;53.636;10.012;2024-03-06T14:56:43;5.72;;;4.28;;
20857;SDS011;10589;53.636;10.012;2024-03-06T14:59:09;6.65;;;4.93;;
20857;SDS011;10589;53.636;10.012;2024-03-06T15:01:35;8.00;;;4.88;;
20857;SDS011;10589;53.636;10.012;2024-03-06T15:04:02;5.13;;;4.60;;
20857;SDS011;10589;53.636;10.012;2024-03-06T15:06:28;6.25;;;4.75;;
20857;SDS011;10589;53.636;10.012;2024-03-06T15:08:54;6.97;;;4.70;;
20857;SDS011;10589;53.636;10.012;2024-03-06T15:11:20;11.30;;;5.38;;
20857;SDS011;10589;53.636;10.012;2024-03-06T15:13:48;6.82;;;5.50;;
20857;SDS011;10589;53.636;10.012;2024-03-06T15:16:14;10.57;;;5.60;;
20857;SDS011;10589;53.636;10.012;2024-03-06T15:18:39;5.80;;;5.00;;
20857;SDS011;10589;53.636;10.012;2024-03-06T15:21:06;6.27;;;4.93;;
20857;SDS011;10589;53.636;10.012;2024-03-06T15:23:31;7.63;;;4.67;;
20857;SDS011;10589;53.636;10.012;2024-03-06T15:25:57;10.70;;;5.23;;
20857;SDS011;10589;53.636;10.012;2024-03-06T15:28:24;11.30;;;5.00;;
20857;SDS011;10589;53.636;10.012;2024-03-06T15:30:49;7.93;;;4.93;;
20857;SDS011;10589;53.636;10.012;2024-03-06T15:33:15;5.80;;;4.87;;
20857;SDS011;10589;53.636;10.012;2024-03-06T15:35:41;6.87;;;5.53;;
20857;SDS011;10589;53.636;10.012;2024-03-06T15:38:06;7.80;;;5.80;;
20857;SDS011;10589;53.636;10.012;2024-03-06T15:40:32;6.77;;;5.70;;
20857;SDS011;10589;53.636;10.012;2024-03-06T15:42:57;10.67;;;5.87;;
20857;SDS011;10589;53.636;10.012;2024-03-06T15:45:23;7.60;;;5.60;;
20857;SDS011;10589;53.636;10.012;2024-03-06T15:47:49;10.23;;;5.80;;
20857;SDS011;10589;53.636;10.012;2024-03-06T15:50:14;7.57;;;5.83;;
20857;SDS011;10589;53.636;10.012;2024-03-06T15:52:40;7.00;;;5.50;;
20857;SDS011;10589;53.636;10.012;2024-03-06T15:55:07;7.93;;;5.80;;
20857;SDS011;10589;53.636;10.012;2024-03-06T15:57:34;7.27;;;5.87;;
20857;SDS011;10589;53.636;10.012;2024-03-06T16:00:00;9.63;;;5.47;;
20857;SDS011;10589;53.636;10.012;2024-03-06T16:02:30;9.00;;;5.53;;
20857;SDS011;10589;53.636;10.012;2024-03-06T16:04:55;8.40;;;5.57;;
20857;SDS011;10589;53.636;10.012;2024-03-06T16:07:21;10.10;;;5.90;;
20857;SDS011;10589;53.636;10.012;2024-03-06T16:09:47;8.97;;;5.87;;
20857;SDS011;10589;53.636;10.012;2024-03-06T16:12:16;6.47;;;5.53;;
20857;SDS011;10589;53.636;10.012;2024-03-06T16:14:41;6.67;;;5.47;;
20857;SDS011;10589;53.636;10.012;2024-03-06T16:17:07;10.33;;;6.20;;
20857;SDS011;10589;53.636;10.012;2024-03-06T16:19:33;7.70;;;5.50;;
20857;SDS011;10589;53.636;10.012;2024-03-06T16:22:00;8.47;;;5.60;;
20857;SDS011;10589;53.636;10.012;2024-03-06T16:24:27;6.83;;;5.50;;
20857;SDS011;10589;53.636;10.012;2024-03-06T16:26:53;9.57;;;5.60;;
20857;SDS011;10589;53.636;10.012;2024-03-06T16:29:19;7.60;;;5.33;;
20857;SDS011;10589;53.636;10.012;2024-03-06T16:31:45;6.93;;;5.40;;
20857;SDS011;10589;53.636;10.012;2024-03-06T16:34:11;6.13;;;5.50;;
20857;SDS011;10589;53.636;10.012;2024-03-06T16:36:37;10.73;;;6.13;;
20857;SDS011;10589;53.636;10.012;2024-03-06T16:39:03;7.33;;;6.27;;
20857;SDS011;10589;53.636;10.012;2024-03-06T16:41:31;10.67;;;5.90;;
20857;SDS011;10589;53.636;10.012;2024-03-06T16:43:56;8.57;;;5.73;;
20857;SDS011;10589;53.636;10.012;2024-03-06T16:46:22;10.03;;;6.00;;
20857;SDS011;10589;53.636;10.012;2024-03-06T16:48:52;7.60;;;5.93;;
20857;SDS011;10589;53.636;10.012;2024-03-06T16:51:19;8.57;;;6.53;;
20857;SDS011;10589;53.636;10.012;2024-03-06T16:53:45;8.50;;;6.07;;
20857;SDS011;10589;53.636;10.012;2024-03-06T16:56:11;10.77;;;6.53;;
20857;SDS011;10589;53.636;10.012;2024-03-06T16:58:37;8.17;;;6.40;;
20857;SDS011;10589;53.636;10.012;2024-03-06T17:01:02;10.27;;;6.57;;
20857;SDS011;10589;53.636;10.012;2024-03-06T17:03:28;7.57;;;5.80;;
20857;SDS011;10589;53.636;10.012;2024-03-06T17:05:54;8.47;;;6.27;;
20857;SDS011;10589;53.636;10.012;2024-03-06T17:08:19;8.33;;;6.70;;
20857;SDS011;10589;53.636;10.012;2024-03-06T17:10:45;7.60;;;5.60;;
20857;SDS011;10589;53.636;10.012;2024-03-06T17:13:10;11.20;;;5.90;;
20857;SDS011;10589;53.636;10.012;2024-03-06T17:15:36;8.13;;;6.80;;
20857;SDS011;10589;53.636;10.012;2024-03-06T17:18:02;9.47;;;6.73;;
20857;SDS011;10589;53.636;10.012;2024-03-06T17:20:27;8.80;;;6.40;;
20857;SDS011;10589;53.636;10.012;2024-03-06T17:22:53;9.70;;;6.80;;
20857;SDS011;10589;53.636;10.012;2024-03-06T17:25:20;9.30;;;6.57;;
20857;SDS011;10589;53.636;10.012;2024-03-06T17:27:47;9.27;;;6.87;;
20857;SDS011;10589;53.636;10.012;2024-03-06T17:30:12;8.10;;;6.30;;
20857;SDS011;10589;53.636;10.012;2024-03-06T17:32:40;9.43;;;6.80;;
20857;SDS011;10589;53.636;10.012;2024-03-06T17:35:07;7.53;;;6.60;;
20857;SDS011;10589;53.636;10.012;2024-03-06T17:37:33;9.60;;;6.33;;
20857;SDS011;10589;53.636;10.012;2024-03-06T17:39:59;8.10;;;6.90;;
20857;SDS011;10589;53.636;10.012;2024-03-06T17:42:25;8.97;;;6.80;;
20857;SDS011;10589;53.636;10.012;2024-03-06T17:44:51;12.20;;;6.67;;
20857;SDS011;10589;53.636;10.012;2024-03-06T17:47:16;9.20;;;7.20;;
20857;SDS011;10589;53.636;10.012;2024-03-06T17:49:42;11.80;;;7.87;;
20857;SDS011;10589;53.636;10.012;2024-03-06T17:52:09;15.73;;;8.83;;
20857;SDS011;10589;53.636;10.012;2024-03-06T17:54:34;8.73;;;6.80;;
20857;SDS011;10589;53.636;10.012;2024-03-06T17:57:00;9.37;;;7.07;;
20857;SDS011;10589;53.636;10.012;2024-03-06T17:59:26;10.60;;;8.50;;
20857;SDS011;10589;53.636;10.012;2024-03-06T18:01:52;10.30;;;7.77;;
20857;SDS011;10589;53.636;10.012;2024-03-06T18:04:18;10.10;;;7.80;;
20857;SDS011;10589;53.636;10.012;2024-03-06T18:06:44;9.10;;;6.70;;
20857;SDS011;10589;53.636;10.012;2024-03-06T18:09:10;10.40;;;7.90;;
20857;SDS011;10589;53.636;10.012;2024-03-06T18:11:40;12.93;;;8.20;;
20857;SDS011;10589;53.636;10.012;2024-03-06T18:14:06;11.40;;;9.17;;
20857;SDS011;10589;53.636;10.012;2024-03-06T18:16:32;11.57;;;8.63;;
20857;SDS011;10589;53.636;10.012;2024-03-06T18:18:58;9.93;;;7.63;;
20857;SDS011;10589;53.636;10.012;2024-03-06T18:21:23;9.90;;;7.87;;
20857;SDS011;10589;53.636;10.012;2024-03-06T18:23:49;13.47;;;8.97;;
20857;SDS011;10589;53.636;10.012;2024-03-06T18:26:18;10.13;;;8.50;;
20857;SDS011;10589;53.636;10.012;2024-03-06T18:28:44;13.37;;;10.23;;
20857;SDS011;10589;53.636;10.012;2024-03-06T18:31:10;9.80;;;8.20;;
20857;SDS011;10589;53.636;10.012;2024-03-06T18:33:35;11.97;;;9.47;;
20857;SDS011;10589;53.636;10.012;2024-03-06T18:36:02;11.70;;;8.73;;
20857;SDS011;10589;53.636;10.012;2024-03-06T18:38:28;10.50;;;9.40;;
20857;SDS011;10589;53.636;10.012;2024-03-06T18:40:53;10.97;;;9.20;;
20857;SDS011;10589;53.636;10.012;2024-03-06T18:43:19;9.90;;;8.57;;
20857;SDS011;10589;53.636;10.012;2024-03-06T18:45:45;11.30;;;9.97;;
20857;SDS011;10589;53.636;10.012;2024-03-06T18:48:11;19.67;;;15.20;;
20857;SDS011;10589;53.636;10.012;2024-03-06T18:50:37;15.77;;;11.67;;
20857;SDS011;10589;53.636;10.012;2024-03-06T18:53:03;16.37;;;12.43;;
20857;SDS011;10589;53.636;10.012;2024-03-06T18:55:28;17.97;;;12.77;;
20857;SDS011;10589;53.636;10.012;2024-03-06T18:57:54;14.20;;;11.00;;
20857;SDS011;10589;53.636;10.012;2024-03-06T19:00:20;14.20;;;10.73;;
20857;SDS011;10589;53.636;10.012;2024-03-06T19:02:47;17.43;;;12.33;;
20857;SDS011;10589;53.636;10.012;2024-03-06T19:05:15;16.23;;;12.17;;
20857;SDS011;10589;53.636;10.012;2024-03-06T19:07:41;16.10;;;12.60;;
20857;SDS011;10589;53.636;10.012;2024-03-06T19:10:08;13.83;;;10.70;;
20857;SDS011;10589;53.636;10.012;2024-03-06T19:12:36;13.03;;;11.30;;
20857;SDS011;10589;53.636;10.012;2024-03-06T19:15:02;14.00;;;10.33;;
20857;SDS011;10589;53.636;10.012;2024-03-06T19:17:28;14.87;;;11.87;;
20857;SDS011;10589;53.636;10.012;2024-03-06T19:19:54;13.73;;;11.07;;